createdAt,value
2019-02-05T00:00:43.125Z,3.00
2019-02-05T00:03:13.418Z,3.40
2019-02-05T00:05:42.150Z,4.20
2019-02-05T00:08:10.886Z,3.03
2019-02-05T00:10:39.641Z,4.23
2019-02-05T00:13:08.325Z,3.80
2019-02-05T00:15:37.087Z,3.13
2019-02-05T00:18:05.818Z,3.10
2019-02-05T00:20:34.854Z,3.67
2019-02-05T00:23:03.578Z,3.43
2019-02-05T00:25:32.587Z,3.13
2019-02-05T00:28:01.254Z,2.90
2019-02-05T00:30:30.266Z,3.20
2019-02-05T00:32:58.954Z,2.83
2019-02-05T00:35:27.744Z,2.70
2019-02-05T00:37:56.377Z,3.17
2019-02-05T00:40:25.104Z,3.20
2019-02-05T00:42:53.784Z,3.20
2019-02-05T00:45:22.814Z,3.07
2019-02-05T00:47:51.896Z,3.80
2019-02-05T00:50:20.595Z,3.10
2019-02-05T00:52:49.353Z,3.13
2019-02-05T00:55:18.064Z,2.97
2019-02-05T00:57:46.816Z,3.00
2019-02-05T01:00:22.368Z,3.53
2019-02-05T01:02:51.107Z,3.33
2019-02-05T01:05:19.962Z,3.17
2019-02-05T01:07:48.725Z,2.90
2019-02-05T01:10:17.516Z,2.90
2019-02-05T01:12:46.259Z,3.10
2019-02-05T01:15:16.200Z,2.87
2019-02-05T01:17:45.173Z,2.87
2019-02-05T01:20:16.236Z,2.60
2019-02-05T01:22:45.297Z,2.70
2019-02-05T01:25:14.729Z,3.07
2019-02-05T01:27:43.750Z,2.97
2019-02-05T01:30:15.006Z,2.80
2019-02-05T01:32:43.750Z,2.70
2019-02-05T01:35:12.515Z,3.10
2019-02-05T01:37:41.220Z,3.20
2019-02-05T01:40:11.661Z,2.60
2019-02-05T01:42:40.872Z,3.13
2019-02-05T01:45:12.419Z,2.70
2019-02-05T01:47:41.356Z,2.70
2019-02-05T01:50:10.409Z,3.40
2019-02-05T01:52:39.097Z,2.80
2019-02-05T01:55:09.973Z,4.30
2019-02-05T01:57:38.665Z,3.03
2019-02-05T02:00:09.901Z,2.57
2019-02-05T02:02:38.594Z,2.70
2019-02-05T02:05:07.350Z,2.53
2019-02-05T02:07:36.094Z,2.93
2019-02-05T02:10:05.586Z,2.73
2019-02-05T02:12:34.797Z,2.60
2019-02-05T02:15:03.636Z,2.83
2019-02-05T02:17:32.556Z,2.80
2019-02-05T02:20:01.496Z,2.53
2019-02-05T02:22:30.285Z,4.23
2019-02-05T02:24:59.113Z,2.50
2019-02-05T02:27:28.089Z,4.10
2019-02-05T02:29:57.113Z,3.03
2019-02-05T02:32:26.085Z,2.93
2019-02-05T02:34:54.789Z,2.47
2019-02-05T02:37:23.517Z,2.97
2019-02-05T02:39:52.635Z,2.77
2019-02-05T02:42:21.657Z,2.83
2019-02-05T02:44:50.582Z,2.47
2019-02-05T02:49:57.754Z,2.77
2019-02-05T02:52:26.528Z,2.90
2019-02-05T02:54:55.260Z,2.73
2019-02-05T02:57:25.109Z,2.70
2019-02-05T02:59:53.910Z,2.53
2019-02-05T03:02:22.633Z,2.60
2019-02-05T03:04:51.572Z,4.30
2019-02-05T03:07:20.537Z,5.53
2019-02-05T03:09:49.490Z,2.60
2019-02-05T03:12:18.194Z,2.80
2019-02-05T03:14:47.154Z,3.00
2019-02-05T03:17:16.188Z,2.60
2019-02-05T03:19:45.753Z,2.90
2019-02-05T03:22:14.502Z,2.17
2019-02-05T03:24:43.272Z,2.67
2019-02-05T03:27:17.979Z,2.57
2019-02-05T03:29:42.711Z,2.97
2019-02-05T03:32:11.666Z,2.80
2019-02-05T03:34:40.478Z,2.97
2019-02-05T03:37:09.200Z,3.00
2019-02-05T03:39:37.901Z,2.83
2019-02-05T03:42:06.667Z,2.63
2019-02-05T03:44:35.342Z,3.13
2019-02-05T03:47:04.094Z,3.40
2019-02-05T03:49:33.107Z,2.83
2019-02-05T03:52:13.963Z,2.93
2019-02-05T03:55:14.402Z,3.13
2019-02-05T03:58:33.259Z,3.00
2019-02-05T04:01:19.433Z,2.50
2019-02-05T04:04:38.952Z,2.53
2019-02-05T04:07:55.027Z,2.40
2019-02-05T04:11:01.438Z,2.70
2019-02-05T04:14:07.349Z,3.17
2019-02-05T04:17:00.981Z,2.20
2019-02-05T04:20:02.032Z,2.50
2019-02-05T04:22:47.867Z,2.83
2019-02-05T04:25:44.792Z,3.50
2019-02-05T04:29:00.990Z,2.63
2019-02-05T04:31:53.415Z,2.83
2019-02-05T04:35:10.638Z,3.60
2019-02-05T04:38:25.950Z,3.63
2019-02-05T04:41:02.335Z,3.23
2019-02-05T04:43:52.923Z,2.70
2019-02-05T04:47:00.936Z,2.87
2019-02-05T04:50:11.337Z,3.60
2019-02-05T04:53:37.025Z,3.00
2019-02-05T04:56:45.911Z,4.13
2019-02-05T04:59:59.194Z,2.70
2019-02-05T05:03:04.107Z,2.90
2019-02-05T05:05:52.344Z,2.90
2019-02-05T05:08:42.396Z,3.73
2019-02-05T05:11:11.091Z,2.93
2019-02-05T05:13:39.664Z,4.00
2019-02-05T05:16:08.493Z,3.43
2019-02-05T05:18:37.356Z,3.70
2019-02-05T05:21:06.036Z,3.00
2019-02-05T05:23:34.879Z,3.50
2019-02-05T05:26:03.475Z,3.30
2019-02-05T05:28:32.468Z,3.37
2019-02-05T05:31:01.063Z,3.63
2019-02-05T05:33:29.664Z,4.37
2019-02-05T05:35:58.350Z,4.80
2019-02-05T05:38:26.989Z,3.37
2019-02-05T05:40:55.605Z,3.87
2019-02-05T05:43:24.256Z,5.10
2019-02-05T05:45:53.238Z,4.03
2019-02-05T05:48:21.891Z,3.50
2019-02-05T05:50:50.469Z,3.93
2019-02-05T05:53:19.057Z,5.10
2019-02-05T05:55:47.977Z,3.73
2019-02-05T05:58:22.907Z,4.57
2019-02-05T06:00:47.026Z,6.00
2019-02-05T06:03:15.855Z,3.97
2019-02-05T06:05:44.815Z,3.60
2019-02-05T06:08:13.405Z,4.27
2019-02-05T06:10:41.997Z,6.73
2019-02-05T06:13:10.693Z,3.67
2019-02-05T06:15:39.365Z,4.03
2019-02-05T06:18:08.025Z,3.50
2019-02-05T06:20:37.280Z,3.50
2019-02-05T06:23:05.873Z,4.50
2019-02-05T06:25:34.475Z,4.00
2019-02-05T06:28:03.131Z,3.67
2019-02-05T06:30:31.757Z,5.00
2019-02-05T06:33:02.848Z,3.93
2019-02-05T06:35:34.484Z,3.43
2019-02-05T06:38:03.065Z,5.07
2019-02-05T06:40:31.912Z,3.90
2019-02-05T06:43:00.769Z,3.93
2019-02-05T06:45:29.435Z,4.10
2019-02-05T06:47:58.028Z,4.03
2019-02-05T06:50:26.603Z,3.40
2019-02-05T06:52:55.808Z,4.07
2019-02-05T06:55:26.374Z,3.80
2019-02-05T06:57:55.012Z,4.47
2019-02-05T07:00:23.612Z,4.43
2019-02-05T07:02:53.279Z,4.03
2019-02-05T07:05:22.856Z,4.37
2019-02-05T07:07:51.843Z,5.43
2019-02-05T07:10:21.424Z,3.80
2019-02-05T07:12:50.033Z,4.10
2019-02-05T07:15:18.710Z,3.50
2019-02-05T07:17:49.935Z,4.93
2019-02-05T07:20:17.941Z,3.40
2019-02-05T07:22:46.527Z,4.03
2019-02-05T07:25:16.188Z,4.53
2019-02-05T07:27:44.853Z,6.07
2019-02-05T07:30:19.180Z,3.67
2019-02-05T07:32:47.780Z,3.70
2019-02-05T07:35:16.336Z,3.47
2019-02-05T07:37:45.035Z,4.90
2019-02-05T07:40:14.989Z,4.07
2019-02-05T07:42:43.860Z,3.93
2019-02-05T07:45:14.741Z,3.83
2019-02-05T07:47:43.592Z,4.10
2019-02-05T07:50:15.540Z,3.20
2019-02-05T07:52:44.437Z,5.77
2019-02-05T07:55:13.076Z,6.83
2019-02-05T07:57:42.048Z,5.23
2019-02-05T08:00:14.126Z,3.43
2019-02-05T08:02:42.814Z,5.30
2019-02-05T08:05:14.561Z,4.67
2019-02-05T08:07:43.244Z,3.90
2019-02-05T08:10:13.048Z,3.80
2019-02-05T08:12:41.659Z,5.87
2019-02-05T08:15:12.375Z,3.33
2019-02-05T08:17:41.285Z,4.23
2019-02-05T08:20:09.956Z,4.67
2019-02-05T08:22:38.652Z,5.13
2019-02-05T08:25:09.090Z,3.50
2019-02-05T08:27:37.776Z,4.13
2019-02-05T08:30:13.572Z,4.00
2019-02-05T08:32:42.444Z,3.57
2019-02-05T08:35:11.478Z,5.40
2019-02-05T08:37:40.127Z,3.93
2019-02-05T08:40:11.418Z,4.47
2019-02-05T08:42:40.100Z,3.83
2019-02-05T08:45:10.824Z,4.47
2019-02-05T08:47:40.890Z,3.43
2019-02-05T08:50:12.627Z,4.97
2019-02-05T08:52:41.334Z,4.30
2019-02-05T08:55:11.264Z,3.93
2019-02-05T08:57:39.862Z,5.20
2019-02-05T09:00:18.161Z,4.17
2019-02-05T09:02:47.111Z,5.60
2019-02-05T09:05:16.087Z,4.00
2019-02-05T09:07:45.120Z,4.20
2019-02-05T09:10:17.155Z,4.27
2019-02-05T09:12:45.993Z,3.80
2019-02-05T09:15:14.628Z,4.03
2019-02-05T09:17:43.268Z,3.60
2019-02-05T09:20:13.159Z,4.53
2019-02-05T09:22:41.824Z,4.97
2019-02-05T09:25:10.695Z,5.93
2019-02-05T09:27:39.364Z,5.70
2019-02-05T09:30:17.078Z,5.80
2019-02-05T09:32:47.164Z,3.97
2019-02-05T09:35:15.753Z,4.30
2019-02-05T09:37:44.587Z,6.47
2019-02-05T09:40:19.056Z,4.97
2019-02-05T09:42:47.815Z,5.30
2019-02-05T09:45:16.497Z,4.30
2019-02-05T09:47:45.172Z,5.80
2019-02-05T09:50:14.130Z,7.17
2019-02-05T09:52:42.732Z,5.10
2019-02-05T09:55:12.048Z,4.70
2019-02-05T09:57:40.614Z,4.93
2019-02-05T10:00:13.500Z,5.70
2019-02-05T10:02:42.133Z,5.77
2019-02-05T10:05:11.537Z,6.70
2019-02-05T10:07:40.128Z,5.50
2019-02-05T10:10:10.902Z,5.80
2019-02-05T10:12:39.656Z,6.17
2019-02-05T10:15:11.773Z,6.13
2019-02-05T10:17:40.335Z,5.80
2019-02-05T10:20:09.667Z,4.50
2019-02-05T10:22:38.560Z,6.70
2019-02-05T10:25:07.813Z,5.67
2019-02-05T10:27:36.715Z,5.23
2019-02-05T10:30:07.963Z,7.43
2019-02-05T10:32:36.847Z,5.90
2019-02-05T10:35:05.965Z,6.67
2019-02-05T10:37:34.648Z,9.23
2019-02-05T10:40:03.304Z,6.37
2019-02-05T10:42:31.964Z,5.90
2019-02-05T10:45:00.591Z,7.77
2019-02-05T10:47:29.512Z,6.13
2019-02-05T10:49:58.195Z,5.43
2019-02-05T10:52:26.871Z,5.47
2019-02-05T10:54:55.783Z,9.30
2019-02-05T10:57:24.449Z,6.27
2019-02-05T10:59:54.478Z,4.87
2019-02-05T11:02:23.176Z,7.43
2019-02-05T11:04:51.879Z,6.43
2019-02-05T11:07:20.832Z,7.90
2019-02-05T11:09:49.416Z,5.67
2019-02-05T11:12:18.128Z,5.73
2019-02-05T11:14:46.781Z,6.97
2019-02-05T11:17:15.685Z,6.27
2019-02-05T11:19:44.562Z,8.00
2019-02-05T11:22:13.209Z,6.43
2019-02-05T11:24:41.895Z,8.70
2019-02-05T11:27:10.601Z,6.90
2019-02-05T11:29:39.503Z,6.60
2019-02-05T11:32:08.094Z,6.70
2019-02-05T11:34:36.697Z,5.40
2019-02-05T11:37:05.646Z,5.27
2019-02-05T11:39:34.326Z,7.40
2019-02-05T11:42:03.016Z,5.83
2019-02-05T11:44:31.673Z,5.20
2019-02-05T11:47:00.374Z,5.67
2019-02-05T11:49:29.103Z,6.67
2019-02-05T11:51:57.932Z,8.30
2019-02-05T11:54:26.645Z,5.80
2019-02-05T11:56:55.352Z,6.90
2019-02-05T11:59:24.268Z,7.33
2019-02-05T12:01:53.137Z,8.07
2019-02-05T12:04:21.723Z,7.63
2019-02-05T12:06:50.495Z,6.13
2019-02-05T12:09:24.675Z,6.63
2019-02-05T12:11:53.365Z,5.83
2019-02-05T12:14:21.961Z,8.57
2019-02-05T12:16:50.876Z,4.30
2019-02-05T12:19:19.813Z,5.20
2019-02-05T12:21:48.737Z,6.17
2019-02-05T12:24:17.335Z,5.80
2019-02-05T12:26:46.027Z,6.70
2019-02-05T12:29:14.920Z,6.60
2019-02-05T12:31:43.591Z,5.73
2019-02-05T12:34:12.189Z,5.63
2019-02-05T12:36:40.764Z,7.23
2019-02-05T12:39:16.613Z,6.40
2019-02-05T12:41:45.213Z,6.57
2019-02-05T12:44:13.828Z,7.60
2019-02-05T12:46:42.441Z,9.27
2019-02-05T12:49:11.047Z,6.60
2019-02-05T12:51:39.659Z,5.23
2019-02-05T12:54:08.777Z,6.60
2019-02-05T12:56:40.585Z,5.87
2019-02-05T12:59:10.424Z,7.20
2019-02-05T13:01:41.153Z,6.10
2019-02-05T13:04:09.812Z,6.83
2019-02-05T13:06:38.415Z,7.80
2019-02-05T13:09:08.683Z,9.10
2019-02-05T13:11:37.264Z,8.57
2019-02-05T13:14:06.084Z,8.83
2019-02-05T13:16:34.698Z,10.63
2019-02-05T13:19:03.546Z,12.03
2019-02-05T13:21:32.149Z,11.47
2019-02-05T13:24:00.857Z,12.47
2019-02-05T13:26:29.491Z,11.17
2019-02-05T13:28:58.084Z,10.97
2019-02-05T13:31:26.968Z,12.40
2019-02-05T13:33:57.964Z,11.27
2019-02-05T13:36:31.577Z,11.83
2019-02-05T13:39:05.352Z,15.83
2019-02-05T13:41:41.313Z,13.07
2019-02-05T13:44:20.322Z,13.63
2019-02-05T13:46:50.397Z,11.20
2019-02-05T13:49:20.706Z,12.30
2019-02-05T13:51:49.559Z,19.83
2019-02-05T13:54:18.498Z,16.50
2019-02-05T13:56:47.325Z,12.87
2019-02-05T13:59:16.613Z,15.80
2019-02-05T14:01:45.640Z,10.00
2019-02-05T14:04:14.719Z,12.73
2019-02-05T14:06:43.342Z,11.90
2019-02-05T14:09:12.971Z,14.20
2019-02-05T14:11:51.153Z,16.23
2019-02-05T14:14:19.793Z,10.83
2019-02-05T14:16:48.379Z,16.70
2019-02-05T14:19:17.260Z,12.60
2019-02-05T14:21:51.756Z,9.83
2019-02-05T14:24:20.706Z,11.90
2019-02-05T14:26:49.326Z,14.63
2019-02-05T14:29:17.919Z,13.40
2019-02-05T14:31:46.584Z,13.13
2019-02-05T14:34:15.394Z,13.67
2019-02-05T14:36:44.213Z,12.33
2019-02-05T14:39:12.855Z,12.00
2019-02-05T14:41:41.448Z,13.87
2019-02-05T14:44:10.312Z,10.27
2019-02-05T14:46:38.904Z,12.10
2019-02-05T14:49:07.872Z,13.63
2019-02-05T14:51:47.060Z,10.43
2019-02-05T14:54:15.717Z,10.97
2019-02-05T14:56:44.579Z,12.90
2019-02-05T14:59:13.159Z,10.40
2019-02-05T15:01:43.407Z,11.07
2019-02-05T15:04:12.415Z,12.40
2019-02-05T15:06:50.164Z,10.03
2019-02-05T15:09:19.016Z,7.97
2019-02-05T15:11:47.815Z,12.40
2019-02-05T15:14:16.716Z,10.40
2019-02-05T15:16:45.282Z,11.10
2019-02-05T15:19:13.944Z,11.13
2019-02-05T15:21:43.114Z,9.80
2019-02-05T15:24:11.704Z,11.63
2019-02-05T15:26:40.285Z,10.93
2019-02-05T15:29:08.895Z,9.10
2019-02-05T15:31:37.667Z,8.40
2019-02-05T15:34:17.578Z,9.53
2019-02-05T15:36:48.775Z,11.93
2019-02-05T15:39:17.608Z,15.50
2019-02-05T15:41:46.298Z,10.50
2019-02-05T15:44:15.196Z,9.70
2019-02-05T15:46:44.331Z,9.87
2019-02-05T15:49:13.468Z,13.00
2019-02-05T15:51:42.072Z,9.77
2019-02-05T15:54:10.672Z,10.87
2019-02-05T15:56:39.312Z,10.00
2019-02-05T15:59:08.264Z,10.43
2019-02-05T16:01:36.871Z,7.90
2019-02-05T16:04:05.486Z,11.93
2019-02-05T16:06:34.049Z,10.70
2019-02-05T16:09:02.876Z,11.53
2019-02-05T16:11:31.484Z,10.27
2019-02-05T16:14:00.337Z,10.23
2019-02-05T16:16:29.020Z,10.60
2019-02-05T16:18:57.860Z,12.13
2019-02-05T16:21:26.815Z,11.47
2019-02-05T16:23:58.140Z,10.50
2019-02-05T16:26:25.745Z,9.27
2019-02-05T16:28:54.336Z,11.07
2019-02-05T16:31:23.192Z,11.13
2019-02-05T16:33:51.795Z,9.90
2019-02-05T16:36:20.402Z,12.07
2019-02-05T16:38:49.247Z,11.17
2019-02-05T16:41:17.869Z,12.50
2019-02-05T16:43:46.459Z,12.60
2019-02-05T16:46:15.309Z,10.53
2019-02-05T16:48:43.901Z,12.70
2019-02-05T16:51:12.484Z,12.90
2019-02-05T16:53:41.263Z,10.23
2019-02-05T16:56:10.253Z,11.03
2019-02-05T16:58:39.096Z,15.30
2019-02-05T17:01:07.949Z,13.17
2019-02-05T17:03:36.644Z,9.00
2019-02-05T17:06:05.524Z,8.40
2019-02-05T17:08:34.212Z,9.20
2019-02-05T17:11:02.852Z,11.97
2019-02-05T17:13:31.692Z,10.23
2019-02-05T17:16:00.272Z,10.37
2019-02-05T17:18:29.784Z,11.50
2019-02-05T17:20:58.381Z,8.10
2019-02-05T17:23:27.022Z,9.73
2019-02-05T17:25:55.635Z,8.37
2019-02-05T17:28:24.207Z,8.43
2019-02-05T17:30:53.013Z,8.73
2019-02-05T17:33:21.670Z,12.00
2019-02-05T17:35:50.287Z,13.33
2019-02-05T17:38:18.892Z,9.90
2019-02-05T17:40:47.776Z,11.07
2019-02-05T17:43:16.639Z,10.63
2019-02-05T17:45:45.296Z,34.33
2019-02-05T17:48:16.135Z,40.30
2019-02-05T17:50:45.031Z,50.80
2019-02-05T17:53:13.611Z,44.80
2019-02-05T17:55:42.208Z,51.00
2019-02-05T17:58:10.897Z,44.03
2019-02-05T18:00:50.991Z,44.13
2019-02-05T18:03:19.980Z,45.67
2019-02-05T18:05:48.844Z,38.23
2019-02-05T18:08:17.460Z,36.83
2019-02-05T18:10:46.076Z,39.53
2019-02-05T18:13:14.652Z,42.07
2019-02-05T18:15:43.343Z,36.40
2019-02-05T18:18:11.944Z,40.63
2019-02-05T18:20:40.581Z,41.10
2019-02-05T18:23:09.404Z,41.83
2019-02-05T18:25:38.156Z,38.40
2019-02-05T18:28:06.869Z,33.50
2019-02-05T18:30:35.601Z,36.33
2019-02-05T18:33:05.838Z,33.63
2019-02-05T18:35:34.794Z,33.27
2019-02-05T18:38:03.556Z,34.57
2019-02-05T18:40:32.401Z,35.90
2019-02-05T18:43:01.309Z,32.10
2019-02-05T18:45:30.413Z,38.50
2019-02-05T18:48:01.160Z,31.47
2019-02-05T18:50:30.240Z,32.00
2019-02-05T18:52:59.345Z,30.43
2019-02-05T18:55:28.650Z,32.00
2019-02-05T18:58:08.407Z,26.97
2019-02-05T19:00:29.774Z,30.47
2019-02-05T19:02:58.477Z,29.80
2019-02-05T19:05:27.650Z,31.67
2019-02-05T19:07:57.046Z,29.27
2019-02-05T19:10:26.804Z,28.70
2019-02-05T19:12:55.476Z,29.13
2019-02-05T19:15:25.939Z,34.53
2019-02-05T19:17:54.681Z,28.03
2019-02-05T19:20:25.296Z,31.00
2019-02-05T19:22:53.994Z,27.73
2019-02-05T19:25:50.793Z,25.13
2019-02-05T19:28:31.091Z,24.33
2019-02-05T19:31:06.595Z,23.00
2019-02-05T19:33:35.470Z,24.30
2019-02-05T19:36:04.181Z,23.60
2019-02-05T19:38:32.865Z,25.13
2019-02-05T19:41:02.180Z,23.53
2019-02-05T19:43:31.185Z,28.10
2019-02-05T19:46:17.601Z,22.87
2019-02-05T19:48:53.515Z,23.83
2019-02-05T19:51:22.554Z,26.90
2019-02-05T19:53:53.865Z,20.33
2019-02-05T19:56:21.985Z,20.97
2019-02-05T19:58:50.697Z,22.53
2019-02-05T20:01:19.392Z,23.13
2019-02-05T20:03:48.108Z,21.53
2019-02-05T20:06:16.804Z,22.90
2019-02-05T20:08:45.777Z,20.83
2019-02-05T20:11:15.410Z,23.90
2019-02-05T20:13:44.186Z,23.43
2019-02-05T20:16:12.860Z,20.57
2019-02-05T20:18:41.572Z,19.00
2019-02-05T20:21:10.644Z,22.53
2019-02-05T20:23:39.642Z,18.50
2019-02-05T20:26:08.341Z,21.77
2019-02-05T20:28:37.465Z,21.20
2019-02-05T20:31:06.470Z,19.27
2019-02-05T20:33:35.193Z,21.77
2019-02-05T20:36:03.885Z,21.43
2019-02-05T20:38:32.677Z,18.93
2019-02-05T20:41:01.445Z,23.03
2019-02-05T20:43:30.250Z,18.97
2019-02-05T20:45:59.763Z,20.70
2019-02-05T20:48:29.740Z,21.27
2019-02-05T20:51:00.976Z,22.23
2019-02-05T20:53:29.376Z,18.67
2019-02-05T20:55:58.053Z,19.60
2019-02-05T20:58:26.824Z,21.07
2019-02-05T21:00:55.530Z,20.80
2019-02-05T21:03:24.485Z,19.53
2019-02-05T21:05:53.198Z,18.77
2019-02-05T21:08:21.889Z,17.90
2019-02-05T21:10:50.559Z,20.27
2019-02-05T21:13:19.349Z,19.37
2019-02-05T21:15:48.075Z,18.90
2019-02-05T21:18:17.553Z,15.47
2019-02-05T21:20:46.436Z,18.70
2019-02-05T21:23:15.121Z,19.73
2019-02-05T21:25:43.785Z,14.70
2019-02-05T21:28:12.523Z,16.17
2019-02-05T21:30:41.304Z,16.07
2019-02-05T21:33:10.381Z,21.07
2019-02-05T21:35:39.455Z,14.97
2019-02-05T21:38:08.126Z,18.53
2019-02-05T21:40:36.825Z,16.73
2019-02-05T21:43:05.598Z,18.33
2019-02-05T21:45:34.334Z,17.97
2019-02-05T21:48:03.025Z,19.30
2019-02-05T21:50:31.802Z,19.03
2019-02-05T21:53:00.866Z,17.10
2019-02-05T21:55:29.745Z,16.33
2019-02-05T21:57:58.500Z,16.33
2019-02-05T22:00:28.932Z,16.60
2019-02-05T22:02:57.732Z,18.80
2019-02-05T22:05:26.572Z,16.03
2019-02-05T22:07:55.519Z,16.87
2019-02-05T22:10:24.460Z,15.70
2019-02-05T22:12:53.211Z,19.23
2019-02-05T22:15:22.273Z,20.97
2019-02-05T22:17:51.063Z,16.43
2019-02-05T22:20:21.688Z,15.70
2019-02-05T22:22:50.473Z,18.30
2019-02-05T22:25:21.443Z,15.73
2019-02-05T22:27:50.193Z,17.80
2019-02-05T22:30:23.873Z,18.33
2019-02-05T22:32:52.706Z,17.37
2019-02-05T22:35:21.492Z,18.80
2019-02-05T22:37:50.618Z,19.30
2019-02-05T22:40:20.701Z,19.40
2019-02-05T22:42:49.368Z,14.40
2019-02-05T22:45:18.385Z,16.17
2019-02-05T22:47:47.354Z,16.00
2019-02-05T22:50:20.997Z,18.20
2019-02-05T22:52:49.780Z,15.53
2019-02-05T22:55:18.573Z,18.70
2019-02-05T22:57:47.644Z,15.23
2019-02-05T23:00:34.741Z,14.87
2019-02-05T23:03:03.653Z,17.43
2019-02-05T23:06:08.841Z,17.50
2019-02-05T23:08:37.536Z,15.93
2019-02-05T23:11:46.656Z,15.30
2019-02-05T23:14:15.637Z,15.17
2019-02-05T23:16:44.372Z,16.20
2019-02-05T23:19:13.402Z,16.93
2019-02-05T23:21:42.237Z,14.80
2019-02-05T23:24:10.935Z,16.43
2019-02-05T23:26:39.666Z,17.63
2019-02-05T23:29:08.432Z,14.50
2019-02-05T23:31:37.199Z,15.67
2019-02-05T23:34:05.934Z,16.17
2019-02-05T23:36:35.224Z,16.10
2019-02-05T23:39:04.711Z,14.90
2019-02-05T23:41:33.694Z,15.77
2019-02-05T23:44:02.379Z,15.60
2019-02-05T23:46:31.020Z,15.40
2019-02-05T23:48:59.741Z,16.00
2019-02-05T23:51:28.413Z,18.87
2019-02-05T23:53:57.426Z,16.20
2019-02-05T23:56:26.412Z,17.13
2019-02-05T23:58:55.094Z,16.50
